createdAt,value
2022-12-25T00:00:43.104Z,84.44
2022-12-25T00:03:45.964Z,84.91
2022-12-25T00:06:48.648Z,84.74
2022-12-25T00:09:51.379Z,85.16
2022-12-25T00:12:53.878Z,84.09
2022-12-25T00:15:56.410Z,83.82
2022-12-25T00:18:59.219Z,84.24
2022-12-25T00:22:01.706Z,84.53
2022-12-25T00:25:04.540Z,84.37
2022-12-25T00:28:06.997Z,85.00
2022-12-25T00:31:17.930Z,84.44
2022-12-25T00:34:21.882Z,84.46
2022-12-25T00:37:24.243Z,84.18
2022-12-25T00:40:26.845Z,84.39
2022-12-25T00:43:29.329Z,84.88
2022-12-25T00:46:31.848Z,85.68
2022-12-25T00:49:34.433Z,85.21
2022-12-25T00:52:37.100Z,85.56
2022-12-25T00:55:39.515Z,84.65
2022-12-25T00:58:41.926Z,84.70
2022-12-25T01:01:45.337Z,85.14
2022-12-25T01:04:49.167Z,85.86
2022-12-25T01:07:51.665Z,85.50
2022-12-25T01:11:00.485Z,85.12
2022-12-25T01:14:03.319Z,85.63
2022-12-25T01:17:05.736Z,85.99
2022-12-25T01:20:09.303Z,84.37
2022-12-25T01:23:12.123Z,86.24
2022-12-25T01:26:15.821Z,84.87
2022-12-25T01:29:18.280Z,83.82
2022-12-25T01:32:21.121Z,85.01
2022-12-25T01:35:24.051Z,85.83
2022-12-25T01:38:26.532Z,84.23
2022-12-25T01:41:29.110Z,85.76
2022-12-25T01:44:37.453Z,85.40
2022-12-25T01:47:40.101Z,84.19
2022-12-25T01:50:47.662Z,85.72
2022-12-25T01:53:50.354Z,84.13
2022-12-25T01:56:55.048Z,84.16
2022-12-25T01:59:59.997Z,84.27
2022-12-25T02:03:04.471Z,84.33
2022-12-25T02:06:07.776Z,84.38
2022-12-25T02:09:10.357Z,84.65
2022-12-25T02:12:24.117Z,84.93
2022-12-25T02:15:35.263Z,85.31
2022-12-25T02:18:46.573Z,85.57
2022-12-25T02:22:22.699Z,85.59
2022-12-25T02:25:53.357Z,86.09
2022-12-25T02:29:17.364Z,86.12
2022-12-25T02:32:28.894Z,85.95
2022-12-25T02:35:31.998Z,85.91
2022-12-25T02:39:00.528Z,86.14
2022-12-25T02:42:09.012Z,86.06
2022-12-25T02:45:33.143Z,86.02
2022-12-25T02:49:04.100Z,86.10
2022-12-25T02:52:32.289Z,86.45
2022-12-25T02:55:59.805Z,86.23
2022-12-25T02:59:22.423Z,86.40
2022-12-25T03:02:45.282Z,86.34
2022-12-25T03:06:09.199Z,86.20
2022-12-25T03:09:40.895Z,86.26
2022-12-25T03:12:52.263Z,86.41
2022-12-25T03:16:14.173Z,86.38
2022-12-25T03:19:37.128Z,86.73
2022-12-25T03:23:01.613Z,86.59
2022-12-25T03:26:23.129Z,86.73
2022-12-25T03:29:49.534Z,86.89
2022-12-25T03:32:59.001Z,86.97
2022-12-25T03:36:31.622Z,87.29
2022-12-25T03:39:49.483Z,87.53
2022-12-25T03:43:19.683Z,87.34
2022-12-25T03:46:44.173Z,87.41
2022-12-25T03:50:17.395Z,87.65
2022-12-25T03:54:06.705Z,88.03
2022-12-25T03:57:29.079Z,87.87
2022-12-25T04:00:50.146Z,87.82
2022-12-25T04:04:11.718Z,88.67
2022-12-25T04:07:32.769Z,88.49
2022-12-25T04:10:53.791Z,89.08
2022-12-25T04:14:14.496Z,88.56
2022-12-25T04:17:35.436Z,87.90
2022-12-25T04:20:56.166Z,89.47
2022-12-25T04:24:17.483Z,88.72
2022-12-25T04:27:38.471Z,88.65
2022-12-25T04:30:59.690Z,88.92
2022-12-25T04:34:20.807Z,89.11
2022-12-25T04:37:23.331Z,89.24
2022-12-25T04:40:26.025Z,89.20
2022-12-25T04:43:28.795Z,89.40
2022-12-25T04:46:31.442Z,89.12
2022-12-25T04:49:34.221Z,90.00
2022-12-25T04:52:38.508Z,90.03
2022-12-25T04:55:40.959Z,89.68
2022-12-25T04:58:44.448Z,90.04
2022-12-25T05:01:47.357Z,89.87
2022-12-25T05:04:49.834Z,89.62
2022-12-25T05:07:52.622Z,90.08
2022-12-25T05:10:55.279Z,91.33
2022-12-25T05:13:58.546Z,90.57
2022-12-25T05:17:01.158Z,90.63
2022-12-25T05:20:05.369Z,90.62
2022-12-25T05:23:11.673Z,91.03
2022-12-25T05:26:22.872Z,91.08
2022-12-25T05:29:25.480Z,91.18
2022-12-25T05:32:27.873Z,92.02
2022-12-25T05:35:30.351Z,91.28
2022-12-25T05:38:33.503Z,91.44
2022-12-25T05:41:35.959Z,90.78
2022-12-25T05:44:46.247Z,90.98
2022-12-25T05:47:48.663Z,90.93
2022-12-25T05:50:51.264Z,91.53
2022-12-25T05:53:53.819Z,91.40
2022-12-25T05:56:56.292Z,91.34
2022-12-25T05:59:58.837Z,90.68
2022-12-25T06:03:01.837Z,90.61
2022-12-25T06:06:04.761Z,91.37
2022-12-25T06:09:07.225Z,91.47
2022-12-25T06:12:09.677Z,91.06
2022-12-25T06:15:12.172Z,91.03
2022-12-25T06:18:14.959Z,90.39
2022-12-25T06:21:17.685Z,90.50
2022-12-25T06:24:21.629Z,90.47
2022-12-25T06:27:24.420Z,90.55
2022-12-25T06:30:26.951Z,90.56
2022-12-25T06:33:29.487Z,91.35
2022-12-25T06:36:32.185Z,90.86
2022-12-25T06:39:34.872Z,90.79
2022-12-25T06:42:37.273Z,90.78
2022-12-25T06:45:39.759Z,90.53
2022-12-25T06:48:47.983Z,90.69
2022-12-25T06:51:50.463Z,91.06
2022-12-25T06:54:52.916Z,91.06
2022-12-25T06:57:55.445Z,90.87
2022-12-25T07:00:58.064Z,90.50
2022-12-25T07:04:04.623Z,90.15
2022-12-25T07:07:09.245Z,90.08
2022-12-25T07:10:12.164Z,89.70
2022-12-25T07:13:14.555Z,90.03
2022-12-25T07:16:17.005Z,88.97
2022-12-25T07:19:19.825Z,89.73
2022-12-25T07:22:22.367Z,89.60
2022-12-25T07:25:24.834Z,89.68
2022-12-25T07:28:28.807Z,89.49
2022-12-25T07:31:31.405Z,89.60
2022-12-25T07:34:33.871Z,89.61
2022-12-25T07:37:36.393Z,89.46
2022-12-25T07:40:38.931Z,89.08
2022-12-25T07:43:42.055Z,89.09
2022-12-25T07:46:44.893Z,89.31
2022-12-25T07:49:47.893Z,89.09
2022-12-25T07:52:50.542Z,88.99
2022-12-25T07:56:00.486Z,89.09
2022-12-25T07:59:03.640Z,89.05
2022-12-25T08:02:06.764Z,89.04
2022-12-25T08:05:09.611Z,88.44
2022-12-25T08:08:12.215Z,88.61
2022-12-25T08:11:14.779Z,88.45
2022-12-25T08:14:17.459Z,88.43
2022-12-25T08:17:19.989Z,87.92
2022-12-25T08:20:22.521Z,87.92
2022-12-25T08:23:25.177Z,87.07
2022-12-25T08:26:27.685Z,86.10
2022-12-25T08:29:30.110Z,85.11
2022-12-25T08:32:34.226Z,85.11
2022-12-25T08:35:37.297Z,84.71
2022-12-25T08:38:40.225Z,84.58
2022-12-25T08:41:42.771Z,84.09
2022-12-25T08:44:45.247Z,83.25
2022-12-25T08:47:47.753Z,82.69
2022-12-25T08:50:52.287Z,82.33
2022-12-25T08:53:59.441Z,81.87
2022-12-25T08:57:03.289Z,81.46
2022-12-25T09:00:06.422Z,81.26
2022-12-25T09:03:09.137Z,80.93
2022-12-25T09:06:14.525Z,80.47
2022-12-25T09:09:17.143Z,80.36
2022-12-25T09:12:19.830Z,80.78
2022-12-25T09:15:22.382Z,81.03
2022-12-25T09:18:25.510Z,80.45
2022-12-25T09:21:27.957Z,78.40
2022-12-25T09:24:30.760Z,75.71
2022-12-25T09:27:33.277Z,71.44
2022-12-25T09:30:35.942Z,69.50
2022-12-25T09:33:40.389Z,67.75
2022-12-25T09:36:43.006Z,64.03
2022-12-25T09:39:46.594Z,62.67
2022-12-25T09:42:49.640Z,62.23
2022-12-25T09:45:52.308Z,63.72
2022-12-25T09:49:10.946Z,59.86
2022-12-25T09:52:20.502Z,57.09
2022-12-25T09:55:29.893Z,55.43
2022-12-25T09:58:33.773Z,56.33
2022-12-25T10:02:02.464Z,60.71
2022-12-25T10:05:32.506Z,65.41
2022-12-25T10:09:25.873Z,67.13
2022-12-25T10:12:50.532Z,63.19
2022-12-25T10:16:04.164Z,64.66
2022-12-25T10:19:38.165Z,65.48
2022-12-25T10:22:52.583Z,65.35
2022-12-25T10:25:55.600Z,64.79
2022-12-25T10:29:14.805Z,62.78
2022-12-25T10:32:17.774Z,57.37
2022-12-25T10:35:22.882Z,50.86
2022-12-25T10:38:25.579Z,46.52
2022-12-25T10:41:51.604Z,43.34
2022-12-25T10:45:02.368Z,41.31
2022-12-25T10:48:07.812Z,40.17
2022-12-25T10:51:10.644Z,39.49
2022-12-25T10:54:30.363Z,38.14
2022-12-25T10:57:45.618Z,37.19
2022-12-25T11:00:58.572Z,35.92
2022-12-25T11:04:01.081Z,35.44
2022-12-25T11:07:24.317Z,34.46
2022-12-25T11:10:33.131Z,33.23
2022-12-25T11:13:41.581Z,31.77
2022-12-25T11:16:44.669Z,31.90
2022-12-25T11:19:53.925Z,31.67
2022-12-25T11:22:56.345Z,31.44
2022-12-25T11:25:58.834Z,31.84
2022-12-25T11:29:01.380Z,31.67
2022-12-25T11:32:12.886Z,32.86
2022-12-25T11:38:20.263Z,29.64
2022-12-25T11:41:30.943Z,29.19
2022-12-25T11:44:48.821Z,28.84
2022-12-25T11:48:00.913Z,29.39
2022-12-25T11:51:05.966Z,30.04
2022-12-25T11:54:24.425Z,30.20
2022-12-25T11:57:29.906Z,29.59
2022-12-25T12:00:35.403Z,29.43
2022-12-25T12:03:41.307Z,29.65
2022-12-25T12:06:54.537Z,29.03
2022-12-25T12:10:09.567Z,28.29
2022-12-25T12:13:17.836Z,27.96
2022-12-25T12:16:20.447Z,27.92
2022-12-25T12:19:28.891Z,29.35
2022-12-25T12:22:31.447Z,27.48
2022-12-25T12:25:40.307Z,27.51
2022-12-25T12:28:46.365Z,27.63
2022-12-25T12:31:51.156Z,28.17
2022-12-25T12:34:54.647Z,27.57
2022-12-25T12:38:04.261Z,26.04
2022-12-25T12:41:08.768Z,26.51
2022-12-25T12:44:12.836Z,27.48
2022-12-25T12:47:50.660Z,28.00
2022-12-25T12:51:04.732Z,28.43
2022-12-25T12:54:24.012Z,28.17
2022-12-25T12:57:29.915Z,28.22
2022-12-25T13:00:50.270Z,27.51
2022-12-25T13:04:17.663Z,29.53
2022-12-25T13:07:44.041Z,32.03
2022-12-25T13:11:03.491Z,37.22
2022-12-25T13:14:06.206Z,40.89
2022-12-25T13:17:09.010Z,43.33
2022-12-25T13:20:28.885Z,44.59
2022-12-25T13:23:34.529Z,43.98
2022-12-25T13:26:39.347Z,45.74
2022-12-25T13:29:41.896Z,45.71
2022-12-25T13:32:45.815Z,45.97
2022-12-25T13:35:48.907Z,42.32
2022-12-25T13:38:54.034Z,45.91
2022-12-25T13:42:05.938Z,47.56
2022-12-25T13:45:14.199Z,49.04
2022-12-25T13:48:17.817Z,51.33
2022-12-25T13:51:20.616Z,51.97
2022-12-25T13:54:23.135Z,52.49
2022-12-25T13:57:37.161Z,53.65
2022-12-25T14:00:48.257Z,54.43
2022-12-25T14:03:50.917Z,55.23
2022-12-25T14:06:53.345Z,56.36
2022-12-25T14:10:01.880Z,57.07
2022-12-25T14:13:07.534Z,58.14
2022-12-25T14:16:11.453Z,59.04
2022-12-25T14:19:34.343Z,60.22
2022-12-25T14:22:38.656Z,61.08
2022-12-25T14:25:44.182Z,61.73
2022-12-25T14:28:48.980Z,62.13
2022-12-25T14:31:52.711Z,62.71
2022-12-25T14:34:59.423Z,63.24
2022-12-25T14:38:02.097Z,63.44
2022-12-25T14:41:22.611Z,64.03
2022-12-25T14:44:39.548Z,64.36
2022-12-25T14:47:58.998Z,64.29
2022-12-25T14:51:15.867Z,64.73
2022-12-25T14:54:23.192Z,65.46
2022-12-25T14:57:29.798Z,65.74
2022-12-25T15:00:36.543Z,65.89
2022-12-25T15:03:38.987Z,66.14
2022-12-25T15:07:00.487Z,66.60
2022-12-25T15:13:31.622Z,66.40
2022-12-25T15:16:49.536Z,66.55
2022-12-25T15:19:54.595Z,66.64
2022-12-25T15:23:18.925Z,66.58
2022-12-25T15:26:22.027Z,66.61
2022-12-25T15:29:52.258Z,66.52
2022-12-25T15:32:47.707Z,66.83
2022-12-25T15:35:50.162Z,67.44
2022-12-25T15:38:53.534Z,67.61
2022-12-25T15:42:10.957Z,68.03
2022-12-25T15:45:20.828Z,68.12
2022-12-25T15:48:23.836Z,68.25
2022-12-25T15:51:26.817Z,68.47
2022-12-25T15:54:30.291Z,68.57
2022-12-25T15:57:33.391Z,68.68
2022-12-25T16:00:35.876Z,68.58
2022-12-25T16:03:38.683Z,68.16
2022-12-25T16:06:41.307Z,67.67
2022-12-25T16:09:44.258Z,67.83
2022-12-25T16:12:47.060Z,67.58
2022-12-25T16:15:49.579Z,68.10
2022-12-25T16:18:52.037Z,68.50
2022-12-25T16:21:54.976Z,68.99
2022-12-25T16:24:57.845Z,68.70
2022-12-25T16:28:03.124Z,69.09
2022-12-25T16:31:05.787Z,69.19
2022-12-25T16:34:09.499Z,69.64
2022-12-25T16:37:12.715Z,69.49
2022-12-25T16:40:15.241Z,69.79
2022-12-25T16:43:23.803Z,70.01
2022-12-25T16:46:26.866Z,69.97
2022-12-25T16:49:29.440Z,70.20
2022-12-25T16:52:33.597Z,70.42
2022-12-25T16:55:39.478Z,70.46
2022-12-25T16:58:44.274Z,70.29
2022-12-25T17:01:46.891Z,70.45
2022-12-25T17:04:49.429Z,70.86
2022-12-25T17:07:51.923Z,70.86
2022-12-25T17:10:54.744Z,70.59
2022-12-25T17:14:03.649Z,70.45
2022-12-25T17:17:06.212Z,70.69
2022-12-25T17:20:09.349Z,70.38
2022-12-25T17:23:11.777Z,70.54
2022-12-25T17:26:14.239Z,70.73
2022-12-25T17:29:21.641Z,70.24
2022-12-25T17:32:24.267Z,70.68
2022-12-25T17:35:26.906Z,71.21
2022-12-25T17:38:31.451Z,70.98
2022-12-25T17:41:34.355Z,71.52
2022-12-25T17:44:36.812Z,71.64
2022-12-25T17:47:39.220Z,71.98
2022-12-25T17:50:41.903Z,72.15
2022-12-25T17:53:47.187Z,71.94
2022-12-25T17:56:49.732Z,72.52
2022-12-25T17:59:52.216Z,72.48
2022-12-25T18:02:54.716Z,72.28
2022-12-25T18:06:00.432Z,72.05
2022-12-25T18:09:06.221Z,72.93
2022-12-25T18:12:09.424Z,72.69
2022-12-25T18:15:12.538Z,72.95
2022-12-25T18:18:15.242Z,72.82
2022-12-25T18:21:17.776Z,72.83
2022-12-25T18:24:20.289Z,72.49
2022-12-25T18:27:23.119Z,73.27
2022-12-25T18:30:25.828Z,73.38
2022-12-25T18:33:28.699Z,74.13
2022-12-25T18:36:31.363Z,74.24
2022-12-25T18:39:34.190Z,74.42
2022-12-25T18:42:39.576Z,74.90
2022-12-25T18:45:42.832Z,74.95
2022-12-25T18:48:45.319Z,74.92
2022-12-25T18:51:49.093Z,74.84
2022-12-25T18:54:51.540Z,75.17
2022-12-25T18:57:54.422Z,74.91
2022-12-25T19:00:57.124Z,75.40
2022-12-25T19:04:05.218Z,75.80
2022-12-25T19:07:08.299Z,75.83
2022-12-25T19:10:10.843Z,76.87
2022-12-25T19:13:13.420Z,77.14
2022-12-25T19:16:16.487Z,77.70
2022-12-25T19:19:21.727Z,78.23
2022-12-25T19:22:24.258Z,77.95
2022-12-25T19:25:27.955Z,77.88
2022-12-25T19:28:30.371Z,77.54
2022-12-25T19:31:33.264Z,77.64
2022-12-25T19:34:36.062Z,77.15
2022-12-25T19:37:38.521Z,77.10
2022-12-25T19:41:00.444Z,76.86
2022-12-25T19:44:06.418Z,76.41
2022-12-25T19:47:10.743Z,76.06
2022-12-25T19:50:13.617Z,75.08
2022-12-25T19:53:17.518Z,74.55
2022-12-25T19:56:20.064Z,74.41
2022-12-25T19:59:22.591Z,74.43
2022-12-25T20:02:25.161Z,74.43
2022-12-25T20:05:30.821Z,74.57
2022-12-25T20:08:33.758Z,74.70
2022-12-25T20:11:37.356Z,75.08
2022-12-25T20:14:39.787Z,75.05
2022-12-25T20:17:42.309Z,75.46
2022-12-25T20:20:47.933Z,74.74
2022-12-25T20:23:52.338Z,75.16
2022-12-25T20:26:58.984Z,75.20
2022-12-25T20:30:02.253Z,74.90
2022-12-25T20:33:06.877Z,74.75
2022-12-25T20:36:09.775Z,74.42
2022-12-25T20:39:13.032Z,73.97
2022-12-25T20:42:15.528Z,73.54
2022-12-25T20:45:18.002Z,73.41
2022-12-25T20:48:21.262Z,73.62
2022-12-25T20:51:26.876Z,73.53
2022-12-25T20:54:29.350Z,73.58
2022-12-25T20:57:31.935Z,73.69
2022-12-25T21:00:34.398Z,74.11
2022-12-25T21:03:37.605Z,74.08
2022-12-25T21:06:40.215Z,74.62
2022-12-25T21:09:43.133Z,74.25
2022-12-25T21:12:45.640Z,74.49
2022-12-25T21:15:49.767Z,75.13
2022-12-25T21:18:53.975Z,75.15
2022-12-25T21:21:56.428Z,75.23
2022-12-25T21:24:58.916Z,75.31
2022-12-25T21:28:01.364Z,75.52
2022-12-25T21:31:05.696Z,75.36
2022-12-25T21:34:08.216Z,76.11
2022-12-25T21:37:11.724Z,76.32
2022-12-25T21:40:16.561Z,76.59
2022-12-25T21:43:19.878Z,76.63
2022-12-25T21:46:22.804Z,76.72
2022-12-25T21:49:44.031Z,77.40
2022-12-25T21:52:46.465Z,77.51
2022-12-25T21:56:00.633Z,77.63
2022-12-25T21:59:05.608Z,77.90
2022-12-25T22:02:11.458Z,78.03
2022-12-25T22:05:34.424Z,77.98
2022-12-25T22:08:37.171Z,78.17
2022-12-25T22:11:58.470Z,78.13
2022-12-25T22:15:07.191Z,78.27
2022-12-25T22:18:28.110Z,78.68
2022-12-25T22:21:30.629Z,78.36
2022-12-25T22:24:33.155Z,78.51
2022-12-25T22:27:38.095Z,78.78
2022-12-25T22:30:44.593Z,78.61
2022-12-25T22:33:47.111Z,78.78
2022-12-25T22:36:50.245Z,78.51
2022-12-25T22:39:52.837Z,78.50
2022-12-25T22:42:56.160Z,78.52
2022-12-25T22:46:00.296Z,78.81
2022-12-25T22:49:02.840Z,79.02
2022-12-25T22:52:05.389Z,79.11
2022-12-25T22:55:09.117Z,78.86
2022-12-25T22:58:11.580Z,78.86
2022-12-25T23:01:14.310Z,78.84
2022-12-25T23:04:17.658Z,78.74
2022-12-25T23:07:20.407Z,78.60
2022-12-25T23:10:22.884Z,78.31
2022-12-25T23:13:44.027Z,78.56
2022-12-25T23:16:46.476Z,78.43
2022-12-25T23:20:09.227Z,78.29
2022-12-25T23:23:34.633Z,78.47
2022-12-25T23:26:37.084Z,78.23
2022-12-25T23:29:41.508Z,78.20
2022-12-25T23:32:44.415Z,78.52
2022-12-25T23:35:46.938Z,78.66
2022-12-25T23:38:49.557Z,78.42
2022-12-25T23:41:52.046Z,78.02
2022-12-25T23:44:54.456Z,77.92
2022-12-25T23:47:56.822Z,77.76
2022-12-25T23:51:07.206Z,77.78
2022-12-25T23:54:15.810Z,77.73
2022-12-25T23:57:18.805Z,77.54
